Time;durP1;ratioP1;P1;durP2;ratioP2;P2;SDS_P1;SDS_P2;PMS_P1;PMS_P2;Temp;Humidity;BMP_temperature;BMP_pressure;BME280_temperature;BME280_humidity;BME280_pressure;Samples;Min_cycle;Max_cycle;Signal;HPM_P1;HPM_P2
2024/01/23 00:00:08;;;;;;;18.60;4.20;;;6.70;99.90;;;;;;4969855;28;20114;-82
2024/01/23 00:02:34;;;;;;;13.88;3.25;;;6.70;99.90;;;;;;4992602;28;20041;-82
2024/01/23 00:04:59;;;;;;;13.73;3.17;;;6.60;99.90;;;;;;4948488;28;20122;-82
2024/01/23 00:07:25;;;;;;;13.50;2.78;;;6.60;99.90;;;;;;4933346;28;20057;-82
2024/01/23 00:09:51;;;;;;;14.40;2.95;;;6.60;99.90;;;;;;4952144;28;20093;-82
2024/01/23 00:12:17;;;;;;;16.17;3.97;;;6.80;99.90;;;;;;4969923;28;20552;-82
2024/01/23 00:14:42;;;;;;;14.80;3.85;;;6.50;99.90;;;;;;4922025;28;20049;-82
2024/01/23 00:17:08;;;;;;;12.57;3.03;;;6.40;99.90;;;;;;4954046;28;20464;-82
2024/01/23 00:19:34;;;;;;;14.70;2.88;;;6.40;99.90;;;;;;4952476;28;20047;-82
2024/01/23 00:22:00;;;;;;;14.23;2.83;;;6.40;99.90;;;;;;4960364;28;20106;-82
2024/01/23 00:24:26;;;;;;;11.00;2.88;;;6.40;99.90;;;;;;4953477;28;20043;-82
2024/01/23 00:26:51;;;;;;;12.35;3.25;;;6.30;99.90;;;;;;4953808;28;20043;-82
2024/01/23 00:29:17;;;;;;;14.98;3.70;;;6.30;99.90;;;;;;4935609;28;20078;-82
2024/01/23 00:31:43;;;;;;;13.40;3.10;;;6.40;99.90;;;;;;5018076;28;20496;-82
2024/01/23 00:34:08;;;;;;;16.23;3.08;;;6.30;99.90;;;;;;4989102;28;20122;-82
2024/01/23 00:36:34;;;;;;;13.32;2.90;;;6.30;99.90;;;;;;4973048;28;20519;-82
2024/01/23 00:39:00;;;;;;;12.50;2.88;;;6.30;99.90;;;;;;4939387;28;20045;-82
2024/01/23 00:41:25;;;;;;;17.05;2.92;;;6.40;99.90;;;;;;4971134;28;20052;-82
2024/01/23 00:43:51;;;;;;;12.35;3.10;;;6.40;99.90;;;;;;4940017;28;20125;-82
2024/01/23 00:46:17;;;;;;;15.63;3.55;;;6.40;99.90;;;;;;4973014;28;20053;-82
2024/01/23 00:48:42;;;;;;;16.35;3.00;;;6.40;99.90;;;;;;4939040;28;20031;-82
2024/01/23 00:51:08;;;;;;;14.23;3.22;;;6.40;99.90;;;;;;5005249;28;20099;-82
2024/01/23 00:53:37;;;;;;;14.57;3.30;;;6.40;99.90;;;;;;5005207;28;20035;-82
2024/01/23 00:56:03;;;;;;;15.05;3.25;;;6.30;99.90;;;;;;4972227;28;20993;-82
2024/01/23 00:58:29;;;;;;;12.68;3.03;;;6.40;99.90;;;;;;4985184;28;20409;-82
2024/01/23 01:00:55;;;;;;;16.70;3.72;;;6.40;99.90;;;;;;4957050;28;20081;-82
2024/01/23 01:03:20;;;;;;;15.05;3.13;;;6.40;99.90;;;;;;4956056;28;20046;-82
2024/01/23 01:05:46;;;;;;;16.20;3.35;;;6.40;99.90;;;;;;4974683;28;20038;-82
2024/01/23 01:08:12;;;;;;;16.52;3.58;;;6.40;99.90;;;;;;4969334;28;20046;-82
2024/01/23 01:10:38;;;;;;;13.68;3.17;;;6.40;99.90;;;;;;4999565;28;20045;-83
2024/01/23 01:13:04;;;;;;;13.98;3.22;;;6.40;99.90;;;;;;4957007;28;20046;-82
2024/01/23 01:15:30;;;;;;;13.68;3.00;;;6.30;99.90;;;;;;4968932;28;20516;-82
2024/01/23 01:17:56;;;;;;;17.13;3.58;;;6.40;99.90;;;;;;4999775;28;20049;-82
2024/01/23 01:20:22;;;;;;;14.60;3.28;;;6.40;99.90;;;;;;4967984;28;20042;-82
2024/01/23 01:22:48;;;;;;;13.68;2.90;;;6.30;99.90;;;;;;4965909;28;20050;-82
2024/01/23 01:25:13;;;;;;;14.68;2.83;;;6.30;99.90;;;;;;4999972;28;20037;-82
2024/01/23 01:27:39;;;;;;;15.73;3.33;;;6.30;99.90;;;;;;4966617;28;20042;-82
2024/01/23 01:30:06;;;;;;;14.30;3.47;;;6.30;99.90;;;;;;4981369;28;20050;-82
2024/01/23 01:32:32;;;;;;;13.68;3.10;;;6.20;99.90;;;;;;5002965;28;20128;-82
2024/01/23 01:34:58;;;;;;;13.88;3.20;;;6.20;99.90;;;;;;5005009;28;20136;-82
2024/01/23 01:37:24;;;;;;;12.00;2.92;;;6.20;99.90;;;;;;5024312;28;20046;-82
2024/01/23 01:39:50;;;;;;;13.88;3.28;;;6.10;99.90;;;;;;4958470;28;20058;-82
2024/01/23 01:42:16;;;;;;;13.25;3.22;;;6.10;99.90;;;;;;5020098;28;20073;-82
2024/01/23 01:44:42;;;;;;;14.20;3.42;;;6.10;99.90;;;;;;5003298;28;20403;-82
2024/01/23 01:47:08;;;;;;;15.38;3.22;;;6.20;99.90;;;;;;4979066;28;20096;-82
2024/01/23 01:49:34;;;;;;;17.27;3.55;;;6.10;99.90;;;;;;5021156;28;20488;-82
2024/01/23 01:52:01;;;;;;;12.80;2.85;;;6.00;99.90;;;;;;4988211;28;20042;-82
2024/01/23 01:54:29;;;;;;;15.43;3.38;;;6.30;99.90;;;;;;5002191;28;20056;-82
2024/01/23 01:56:56;;;;;;;18.70;3.90;;;6.00;99.90;;;;;;5021519;28;20047;-82
2024/01/23 01:59:21;;;;;;;16.92;3.33;;;6.00;99.90;;;;;;4974507;28;20201;-82
2024/01/23 02:01:48;;;;;;;13.23;3.50;;;5.90;99.90;;;;;;5003662;28;20568;-82
2024/01/23 02:04:14;;;;;;;10.93;3.03;;;5.90;99.90;;;;;;4997184;28;20048;-82
2024/01/23 02:06:40;;;;;;;15.82;3.42;;;5.90;99.90;;;;;;5002436;28;20303;-82
2024/01/23 02:09:06;;;;;;;15.88;3.25;;;5.90;99.90;;;;;;5018087;28;20038;-82
2024/01/23 02:11:32;;;;;;;16.92;3.42;;;5.90;99.90;;;;;;4970478;28;21254;-82
2024/01/23 02:13:58;;;;;;;15.80;3.55;;;5.80;99.90;;;;;;4970456;28;20050;-82
2024/01/23 02:16:23;;;;;;;15.18;3.72;;;5.90;99.90;;;;;;4955328;28;20074;-82
2024/01/23 02:18:49;;;;;;;13.77;2.78;;;5.80;99.90;;;;;;4955859;28;20068;-82
2024/01/23 02:21:15;;;;;;;17.92;4.07;;;5.90;99.90;;;;;;5005643;28;20056;-82
2024/01/23 02:23:44;;;;;;;16.25;3.35;;;5.80;99.90;;;;;;4955410;28;20039;-82
2024/01/23 02:26:14;;;;;;;18.48;3.30;;;5.80;99.90;;;;;;4966945;28;20054;-82
2024/01/23 02:28:40;;;;;;;13.75;3.33;;;5.80;99.90;;;;;;4964469;28;20528;-82
2024/01/23 02:31:06;;;;;;;14.00;3.47;;;5.90;99.90;;;;;;4971534;28;20142;-82
2024/01/23 02:33:32;;;;;;;18.48;4.05;;;5.90;99.90;;;;;;5003027;28;20072;-82
2024/01/23 02:35:58;;;;;;;18.67;3.55;;;5.90;99.90;;;;;;4999698;28;20047;-82
2024/01/23 02:38:24;;;;;;;15.02;3.33;;;5.90;99.90;;;;;;4987390;28;20332;-82
2024/01/23 02:40:50;;;;;;;15.75;3.53;;;5.90;99.90;;;;;;4971133;28;20332;-82
2024/01/23 02:43:15;;;;;;;21.80;3.70;;;5.90;99.90;;;;;;4973559;28;20504;-82
2024/01/23 02:45:41;;;;;;;12.88;3.47;;;5.90;99.90;;;;;;5034468;28;20487;-82
2024/01/23 02:48:07;;;;;;;14.00;3.53;;;6.00;99.90;;;;;;4974106;28;20045;-83
2024/01/23 02:50:33;;;;;;;13.32;3.25;;;6.10;99.90;;;;;;4975554;28;20077;-82
2024/01/23 02:52:58;;;;;;;16.27;4.00;;;6.10;99.90;;;;;;4938675;28;20070;-82
2024/01/23 02:55:24;;;;;;;17.08;3.50;;;6.10;99.90;;;;;;4999895;28;20412;-82
2024/01/23 02:57:50;;;;;;;15.57;3.30;;;6.30;99.90;;;;;;5004227;28;20292;-82
2024/01/23 03:00:16;;;;;;;13.98;3.75;;;6.20;99.90;;;;;;5007430;28;20117;-82
2024/01/23 03:02:41;;;;;;;16.35;3.67;;;6.20;99.90;;;;;;4955558;28;20039;-82
2024/01/23 03:05:07;;;;;;;13.57;3.58;;;6.20;99.90;;;;;;4939212;28;20043;-82
2024/01/23 03:07:33;;;;;;;19.15;3.85;;;6.30;99.90;;;;;;4957922;28;20588;-82
2024/01/23 03:09:59;;;;;;;20.90;4.22;;;6.50;99.90;;;;;;4941638;28;20128;-82
2024/01/23 03:12:26;;;;;;;20.13;3.83;;;6.30;99.90;;;;;;4958616;28;20045;-82
2024/01/23 03:14:51;;;;;;;22.30;4.32;;;6.30;99.90;;;;;;4959100;28;20038;-82
2024/01/23 03:17:18;;;;;;;18.50;3.78;;;6.30;99.90;;;;;;4954421;28;20109;-82
2024/01/23 03:19:44;;;;;;;16.05;3.63;;;6.30;99.90;;;;;;4991139;28;20069;-82
2024/01/23 03:22:10;;;;;;;18.35;3.50;;;6.60;99.90;;;;;;4958205;28;20060;-82
2024/01/23 03:24:39;;;;;;;17.52;3.90;;;6.30;99.90;;;;;;5007157;28;20504;-82
2024/01/23 03:27:06;;;;;;;13.95;3.10;;;6.30;99.90;;;;;;4958550;28;20078;-82
2024/01/23 03:29:43;;;;;;;16.52;4.22;;;6.30;99.90;;;;;;4954502;28;20046;-82
2024/01/23 03:32:10;;;;;;;17.08;4.53;;;6.30;99.90;;;;;;5011420;28;20070;-82
2024/01/23 03:34:37;;;;;;;17.80;4.22;;;6.70;99.90;;;;;;4959013;28;20054;-82
2024/01/23 03:37:03;;;;;;;16.65;3.60;;;6.30;99.90;;;;;;4956420;28;20038;-82
2024/01/23 03:39:29;;;;;;;15.70;3.53;;;6.40;99.90;;;;;;5021199;28;20527;-82
2024/01/23 03:41:56;;;;;;;15.77;4.05;;;6.40;99.90;;;;;;5006758;28;20070;-82
2024/01/23 03:44:23;;;;;;;15.88;3.42;;;6.40;99.90;;;;;;4972972;28;20053;-82
2024/01/23 03:46:49;;;;;;;18.55;3.97;;;6.40;99.90;;;;;;4958277;28;20030;-82
2024/01/23 03:49:15;;;;;;;15.65;3.58;;;6.40;99.90;;;;;;4938549;28;20053;-82
2024/01/23 03:51:42;;;;;;;18.42;3.80;;;6.70;99.90;;;;;;4958629;28;20038;-82
2024/01/23 03:54:08;;;;;;;14.95;4.05;;;6.40;99.90;;;;;;4972540;28;20046;-82
2024/01/23 03:56:33;;;;;;;15.88;3.80;;;6.40;99.90;;;;;;4989465;28;20053;-82
2024/01/23 03:58:59;;;;;;;17.98;4.25;;;6.40;99.90;;;;;;4941038;28;20396;-82
2024/01/23 04:01:25;;;;;;;20.95;4.00;;;6.40;99.90;;;;;;4965973;28;20113;-82
2024/01/23 04:03:50;;;;;;;16.45;4.38;;;6.40;99.90;;;;;;5009637;28;20440;-82
2024/01/23 04:06:16;;;;;;;19.00;4.95;;;6.40;99.90;;;;;;4987053;28;20497;-82
2024/01/23 04:08:42;;;;;;;18.10;3.50;;;6.40;99.90;;;;;;4971887;28;20040;-82
2024/01/23 04:11:08;;;;;;;19.30;3.88;;;6.40;99.90;;;;;;4957482;28;20193;-82
2024/01/23 04:13:35;;;;;;;19.52;5.32;;;6.60;99.90;;;;;;4973830;28;20133;-82
2024/01/23 04:16:00;;;;;;;19.48;3.67;;;6.50;99.90;;;;;;4941463;28;20045;-82
2024/01/23 04:18:26;;;;;;;17.92;4.07;;;6.50;99.90;;;;;;4973283;28;20038;-82
2024/01/23 04:20:52;;;;;;;20.92;4.15;;;6.50;99.90;;;;;;4972931;28;20122;-82
2024/01/23 04:23:17;;;;;;;16.20;4.50;;;6.50;99.90;;;;;;4989571;28;20409;-82
2024/01/23 04:25:43;;;;;;;20.75;4.60;;;6.50;99.90;;;;;;4957451;28;20523;-82
2024/01/23 04:28:09;;;;;;;18.75;3.85;;;6.50;99.90;;;;;;4956179;28;20265;-82
2024/01/23 04:30:35;;;;;;;16.05;4.13;;;6.60;99.90;;;;;;4986168;28;20129;-82
2024/01/23 04:33:00;;;;;;;21.08;4.30;;;6.60;99.90;;;;;;5005737;28;20066;-82
2024/01/23 04:35:27;;;;;;;21.35;4.60;;;6.60;99.90;;;;;;4957333;28;20100;-82
2024/01/23 04:37:53;;;;;;;15.02;3.83;;;6.60;99.90;;;;;;4957318;28;20041;-82
2024/01/23 04:40:18;;;;;;;16.70;3.88;;;6.60;99.90;;;;;;4970879;28;20051;-82
2024/01/23 04:42:44;;;;;;;21.42;4.28;;;6.70;99.90;;;;;;4973047;28;20089;-82
2024/01/23 04:45:10;;;;;;;21.10;4.80;;;6.70;99.90;;;;;;4957145;28;20496;-82
2024/01/23 04:47:36;;;;;;;18.17;4.57;;;6.70;99.90;;;;;;5022160;28;20440;-82
2024/01/23 04:50:02;;;;;;;21.58;4.90;;;6.70;99.90;;;;;;4972835;28;20037;-82
2024/01/23 04:52:28;;;;;;;18.42;4.35;;;6.70;99.90;;;;;;4971139;28;20073;-82
2024/01/23 04:54:53;;;;;;;23.75;5.20;;;6.70;99.90;;;;;;4956848;28;20081;-82
2024/01/23 04:57:19;;;;;;;18.65;4.30;;;6.80;99.90;;;;;;4972673;28;20145;-82
2024/01/23 04:59:45;;;;;;;16.08;4.57;;;6.80;99.90;;;;;;4989589;28;20058;-82
2024/01/23 05:02:11;;;;;;;17.67;4.50;;;6.80;99.90;;;;;;5002803;28;20038;-82
2024/01/23 05:04:37;;;;;;;19.33;4.43;;;6.80;99.90;;;;;;5015984;28;20049;-82
2024/01/23 05:07:03;;;;;;;18.05;4.97;;;6.80;99.90;;;;;;4972528;28;20121;-82
2024/01/23 05:09:31;;;;;;;22.15;4.18;;;6.80;99.90;;;;;;4972608;28;20042;-82
2024/01/23 05:12:00;;;;;;;19.45;4.65;;;6.80;99.90;;;;;;4971270;28;20034;-82
2024/01/23 05:14:26;;;;;;;22.10;5.72;;;7.00;99.90;;;;;;4972467;28;20047;-82
2024/01/23 05:16:52;;;;;;;19.85;3.90;;;6.80;99.90;;;;;;4972816;28;20097;-82
2024/01/23 05:19:17;;;;;;;18.42;4.43;;;6.80;99.90;;;;;;5003816;28;20039;-82
2024/01/23 05:21:43;;;;;;;18.02;4.72;;;6.80;99.90;;;;;;4975454;28;20042;-82
2024/01/23 05:24:09;;;;;;;19.60;4.72;;;6.80;99.90;;;;;;4971295;28;20041;-82
2024/01/23 05:26:35;;;;;;;18.42;4.03;;;6.80;99.90;;;;;;4971297;28;20057;-82
2024/01/23 05:29:00;;;;;;;18.80;4.75;;;6.80;99.90;;;;;;4972441;28;20077;-82
2024/01/23 05:31:26;;;;;;;16.83;4.15;;;6.90;99.90;;;;;;4956308;28;20049;-82
2024/01/23 05:33:52;;;;;;;18.52;4.25;;;;;;;;;;4967513;28;20121;-82
2024/01/23 05:36:18;;;;;;;17.42;4.38;;;6.90;99.90;;;;;;4952271;28;20034;-82
2024/01/23 05:38:44;;;;;;;25.08;5.25;;;7.10;99.90;;;;;;4988441;28;20492;-82
2024/01/23 05:41:10;;;;;;;17.52;5.32;;;6.90;99.90;;;;;;4988238;28;20682;-82
2024/01/23 05:43:35;;;;;;;19.40;4.47;;;6.90;99.90;;;;;;4970682;28;20035;-82
2024/01/23 05:46:02;;;;;;;19.02;4.47;;;6.80;99.90;;;;;;4986078;28;20427;-82
2024/01/23 05:48:28;;;;;;;17.08;4.63;;;6.80;99.90;;;;;;4952320;28;20067;-82
2024/01/23 05:50:54;;;;;;;21.83;5.38;;;6.80;99.90;;;;;;4971727;28;20038;-82
2024/01/23 05:53:19;;;;;;;19.63;5.13;;;6.80;99.90;;;;;;4952466;28;20047;-82
2024/01/23 05:55:45;;;;;;;18.20;3.83;;;6.80;99.90;;;;;;4953561;28;20046;-82
2024/01/23 05:58:11;;;;;;;16.23;5.10;;;6.80;99.90;;;;;;4981959;28;20522;-82
2024/01/23 06:00:37;;;;;;;21.65;4.32;;;6.70;99.90;;;;;;4993467;28;20134;-82
2024/01/23 06:03:03;;;;;;;23.88;4.82;;;6.80;99.90;;;;;;4983146;28;20053;-82
2024/01/23 06:05:29;;;;;;;22.20;4.80;;;6.70;99.90;;;;;;4965333;28;20515;-82
2024/01/23 06:07:54;;;;;;;24.95;4.95;;;6.70;99.90;;;;;;4966827;28;20113;-82
2024/01/23 06:10:20;;;;;;;20.35;4.32;;;6.60;99.90;;;;;;4969722;28;20041;-82
2024/01/23 06:12:46;;;;;;;17.35;4.60;;;6.60;99.90;;;;;;5003914;28;20407;-82
2024/01/23 06:15:13;;;;;;;20.17;4.57;;;6.60;99.90;;;;;;4971795;28;20045;-82
2024/01/23 06:17:39;;;;;;;20.52;4.80;;;6.50;99.90;;;;;;5035415;28;20058;-82
2024/01/23 06:20:07;;;;;;;23.33;4.90;;;6.50;99.90;;;;;;4959031;28;20038;-82
2024/01/23 06:22:35;;;;;;;20.08;5.18;;;6.40;99.90;;;;;;4986547;28;20078;-82
2024/01/23 06:25:09;;;;;;;17.25;4.30;;;6.40;99.90;;;;;;5000686;28;20637;-82
2024/01/23 06:27:37;;;;;;;22.33;4.65;;;6.40;99.90;;;;;;4973833;28;20042;-82
2024/01/23 06:30:04;;;;;;;18.30;5.22;;;6.30;99.90;;;;;;4968327;28;20053;-82
2024/01/23 06:32:30;;;;;;;23.88;5.22;;;6.20;99.90;;;;;;4964039;28;20197;-82
2024/01/23 06:34:59;;;;;;;21.35;4.88;;;6.20;99.90;;;;;;5002231;28;20042;-82
2024/01/23 06:37:25;;;;;;;14.63;4.30;;;6.20;99.90;;;;;;4994116;28;20044;-82
2024/01/23 06:39:50;;;;;;;20.83;4.80;;;6.10;99.90;;;;;;4951393;28;20048;-82
2024/01/23 06:42:16;;;;;;;21.58;4.65;;;6.10;99.90;;;;;;4975506;28;20042;-82
2024/01/23 06:44:42;;;;;;;20.98;5.22;;;6.10;99.90;;;;;;4961230;28;20054;-82
2024/01/23 06:47:08;;;;;;;20.50;4.68;;;6.10;99.90;;;;;;4971850;28;20082;-82
2024/01/23 06:49:33;;;;;;;24.17;4.93;;;6.00;99.90;;;;;;4943757;28;20042;-82
2024/01/23 06:51:59;;;;;;;22.08;6.05;;;6.10;99.90;;;;;;4958900;28;20049;-82
2024/01/23 06:54:25;;;;;;;24.73;5.57;;;6.00;99.90;;;;;;4982567;28;20125;-82
2024/01/23 06:56:51;;;;;;;23.60;5.10;;;6.00;99.90;;;;;;4977675;28;20038;-82
2024/01/23 06:59:17;;;;;;;18.58;4.70;;;6.00;99.90;;;;;;4958994;28;20053;-82
2024/01/23 07:01:43;;;;;;;24.27;5.20;;;5.90;99.90;;;;;;4943154;28;20101;-82
2024/01/23 07:04:09;;;;;;;20.88;5.05;;;6.00;99.90;;;;;;4959405;28;20089;-82
2024/01/23 07:06:34;;;;;;;26.45;5.68;;;6.00;99.90;;;;;;5008798;28;20062;-82
2024/01/23 07:09:00;;;;;;;23.50;5.55;;;6.00;99.90;;;;;;4973547;28;20041;-82
2024/01/23 07:11:27;;;;;;;25.92;4.85;;;6.20;99.90;;;;;;4989495;28;20039;-82
2024/01/23 07:13:53;;;;;;;22.48;5.88;;;5.90;99.90;;;;;;4971390;28;20045;-82
2024/01/23 07:16:19;;;;;;;19.65;5.25;;;5.80;99.90;;;;;;4952957;28;20898;-82
2024/01/23 07:18:45;;;;;;;23.67;5.30;;;5.90;99.90;;;;;;5003487;28;20265;-82
2024/01/23 07:21:11;;;;;;;26.25;5.30;;;5.80;99.90;;;;;;5018888;28;20335;-82
2024/01/23 07:23:37;;;;;;;23.75;5.30;;;5.80;99.90;;;;;;4957839;28;20072;-82
2024/01/23 07:26:03;;;;;;;30.20;5.32;;;5.70;99.90;;;;;;4969659;28;20072;-82
2024/01/23 07:28:29;;;;;;;22.08;5.10;;;5.70;99.90;;;;;;5014629;28;20495;-82
2024/01/23 07:30:55;;;;;;;24.92;5.80;;;5.70;99.90;;;;;;4957602;28;20050;-82
2024/01/23 07:33:20;;;;;;;29.58;4.85;;;5.70;99.90;;;;;;4972001;28;20491;-82
2024/01/23 07:35:46;;;;;;;24.75;5.90;;;5.70;99.90;;;;;;4971988;28;20043;-82
2024/01/23 07:38:12;;;;;;;18.67;4.65;;;5.70;99.90;;;;;;4971053;28;20555;-81
2024/01/23 07:40:38;;;;;;;22.83;5.22;;;5.70;99.90;;;;;;5033242;28;20466;-82
2024/01/23 07:43:04;;;;;;;24.40;5.80;;;5.70;99.90;;;;;;5013875;28;20506;-82
2024/01/23 07:45:29;;;;;;;25.08;6.00;;;5.70;99.90;;;;;;4956856;28;20042;-82
2024/01/23 07:47:56;;;;;;;22.70;5.18;;;5.60;99.90;;;;;;4965136;28;20173;-82
2024/01/23 07:50:21;;;;;;;21.23;5.22;;;5.60;99.90;;;;;;4987320;28;20070;-82
2024/01/23 07:52:47;;;;;;;22.88;5.65;;;5.60;99.90;;;;;;5001978;28;20074;-82
2024/01/23 07:55:13;;;;;;;25.98;5.57;;;5.60;99.90;;;;;;4956528;28;20054;-82
2024/01/23 07:57:39;;;;;;;23.30;5.82;;;5.60;99.90;;;;;;5000851;28;20471;-82
2024/01/23 08:00:05;;;;;;;21.60;5.07;;;5.70;99.90;;;;;;5031190;28;20049;-82
2024/01/23 08:02:32;;;;;;;25.05;5.22;;;5.60;99.90;;;;;;4973640;28;20395;-82
2024/01/23 08:04:58;;;;;;;22.63;5.43;;;5.70;99.90;;;;;;5019294;28;20048;-82
2024/01/23 08:07:24;;;;;;;23.23;5.15;;;5.60;99.90;;;;;;4984327;28;20037;-82
2024/01/23 08:09:49;;;;;;;24.60;5.63;;;5.70;99.90;;;;;;4965620;28;20042;-82
2024/01/23 08:12:15;;;;;;;21.20;4.47;;;5.80;99.90;;;;;;4999874;28;20443;-82
2024/01/23 08:14:41;;;;;;;21.33;4.55;;;5.70;99.90;;;;;;4984212;28;20073;-82
2024/01/23 08:17:07;;;;;;;20.42;5.00;;;5.70;99.90;;;;;;4988304;28;20175;-82
2024/01/23 08:19:33;;;;;;;26.23;5.45;;;5.70;99.90;;;;;;4999343;28;20046;-84
2024/01/23 08:21:58;;;;;;;20.58;5.20;;;5.70;99.90;;;;;;4997256;28;20050;-83
2024/01/23 08:24:25;;;;;;;22.98;5.07;;;5.70;99.90;;;;;;4965968;28;20468;-83
2024/01/23 08:26:54;;;;;;;24.35;4.95;;;5.70;99.90;;;;;;4983008;28;20065;-83
2024/01/23 08:29:20;;;;;;;28.65;5.57;;;4.70;99.90;;;;;;5017325;28;20047;-83
2024/01/23 08:31:46;;;;;;;30.15;5.60;;;5.70;99.90;;;;;;5001375;28;20514;-83
2024/01/23 08:34:11;;;;;;;22.52;5.63;;;5.80;99.90;;;;;;4977190;28;20408;-83
2024/01/23 08:36:37;;;;;;;19.25;5.55;;;5.80;99.90;;;;;;4952637;28;20564;-83
2024/01/23 08:39:03;;;;;;;23.88;5.68;;;5.80;99.90;;;;;;4971977;28;20044;-83
2024/01/23 08:41:29;;;;;;;26.55;5.07;;;5.90;99.90;;;;;;4969846;28;20155;-83
2024/01/23 08:43:55;;;;;;;23.90;5.28;;;5.80;99.90;;;;;;4986199;28;20034;-83
2024/01/23 08:46:22;;;;;;;23.35;5.15;;;5.90;99.90;;;;;;5002139;28;20034;-83
2024/01/23 08:48:48;;;;;;;27.02;6.32;;;5.90;99.90;;;;;;4968367;28;20035;-83
2024/01/23 08:51:14;;;;;;;23.35;5.50;;;6.20;99.90;;;;;;4995200;28;20038;-83
2024/01/23 08:53:40;;;;;;;23.92;4.85;;;5.90;99.90;;;;;;4994859;28;20410;-83
2024/01/23 08:56:05;;;;;;;25.20;5.30;;;6.00;99.90;;;;;;5013614;28;20048;-83
2024/01/23 08:58:31;;;;;;;27.33;5.82;;;6.00;99.90;;;;;;4954136;28;20039;-83
2024/01/23 09:00:58;;;;;;;24.95;5.93;;;6.00;99.90;;;;;;5028594;28;20045;-83
2024/01/23 09:03:23;;;;;;;22.20;4.90;;;6.00;99.90;;;;;;5014093;28;20133;-83
2024/01/23 09:05:50;;;;;;;23.33;5.00;;;6.10;99.90;;;;;;4965240;28;20484;-84
2024/01/23 09:08:16;;;;;;;21.33;4.38;;;6.10;99.90;;;;;;4962882;28;20041;-83
2024/01/23 09:10:42;;;;;;;25.00;4.97;;;6.10;99.90;;;;;;4948339;28;20035;-83
2024/01/23 09:13:08;;;;;;;33.33;5.20;;;6.20;99.90;;;;;;5009408;28;20062;-82
2024/01/23 09:15:35;;;;;;;16.40;4.25;;;6.30;99.90;;;;;;5001019;28;20085;-83
2024/01/23 09:18:01;;;;;;;25.10;5.90;;;6.30;99.90;;;;;;5017379;28;20161;-83
2024/01/23 09:20:26;;;;;;;21.80;4.97;;;6.40;99.90;;;;;;5011441;28;20118;-83
2024/01/23 09:22:52;;;;;;;25.83;6.13;;;6.30;99.90;;;;;;4952142;28;20507;-83
2024/01/23 09:25:18;;;;;;;21.13;4.88;;;6.40;99.90;;;;;;4969079;28;20089;-83
2024/01/23 09:27:44;;;;;;;24.30;5.10;;;6.90;99.90;;;;;;4936399;28;20081;-83
2024/01/23 09:30:11;;;;;;;27.23;5.25;;;6.50;99.90;;;;;;5011863;28;20038;-83
2024/01/23 09:32:37;;;;;;;26.00;5.15;;;6.50;99.90;;;;;;4968500;28;20046;-83
2024/01/23 09:35:03;;;;;;;24.08;5.30;;;6.50;99.90;;;;;;4970502;28;20042;-83
2024/01/23 09:37:28;;;;;;;24.85;5.05;;;6.60;99.90;;;;;;4951470;28;20074;-83
2024/01/23 09:39:54;;;;;;;22.33;5.43;;;6.60;99.90;;;;;;4967156;28;20038;-83
2024/01/23 09:42:25;;;;;;;22.33;5.35;;;6.70;99.90;;;;;;5014672;28;20046;-82
2024/01/23 09:44:53;;;;;;;23.63;4.40;;;6.70;99.90;;;;;;5026005;28;20436;-82
2024/01/23 09:47:23;;;;;;;24.88;5.80;;;6.70;99.90;;;;;;5002863;28;20038;-83
2024/01/23 09:49:51;;;;;;;20.60;5.30;;;6.80;99.90;;;;;;5002894;28;20057;-83
2024/01/23 09:52:18;;;;;;;20.67;4.55;;;6.80;99.90;;;;;;4970208;28;20042;-83
2024/01/23 09:54:45;;;;;;;29.55;5.40;;;6.90;99.90;;;;;;4971772;28;20112;-83
2024/01/23 09:57:12;;;;;;;21.83;5.60;;;6.90;99.90;;;;;;4988396;28;20097;-82
2024/01/23 09:59:39;;;;;;;19.83;5.10;;;6.90;99.90;;;;;;5030548;28;20121;-83
2024/01/23 10:02:08;;;;;;;25.08;4.85;;;6.90;99.90;;;;;;4969690;28;20645;-82
2024/01/23 10:04:35;;;;;;;24.65;4.70;;;7.00;99.90;;;;;;4988634;28;20034;-83
2024/01/23 10:07:07;;;;;;;25.48;5.97;;;7.00;99.90;;;;;;4971300;28;20635;-83
2024/01/23 10:09:33;;;;;;;20.95;4.72;;;7.00;99.90;;;;;;5002368;28;20265;-83
2024/01/23 10:11:59;;;;;;;26.88;5.40;;;7.00;99.90;;;;;;4992941;28;20324;-83
2024/01/23 10:14:25;;;;;;;18.98;5.70;;;7.00;99.90;;;;;;4943223;28;20123;-83
2024/01/23 10:16:51;;;;;;;24.33;5.57;;;7.10;99.90;;;;;;5007473;28;20616;-82
2024/01/23 10:19:16;;;;;;;21.70;5.13;;;7.10;99.90;;;;;;4996034;28;20046;-83
2024/01/23 10:21:42;;;;;;;18.10;4.20;;;7.10;99.90;;;;;;5003943;28;20177;-83
2024/01/23 10:24:08;;;;;;;23.23;5.10;;;7.20;99.90;;;;;;4957180;28;20405;-83
2024/01/23 10:26:34;;;;;;;24.70;4.88;;;7.20;99.90;;;;;;4941395;28;21182;-83
2024/01/23 10:29:04;;;;;;;22.80;5.28;;;7.30;99.90;;;;;;5003661;28;20041;-83
2024/01/23 10:31:30;;;;;;;20.98;4.53;;;7.30;99.90;;;;;;4988474;28;20061;-83
2024/01/23 10:33:57;;;;;;;19.98;4.50;;;7.30;99.90;;;;;;4968842;28;20077;-83
2024/01/23 10:36:23;;;;;;;24.13;5.13;;;7.40;99.90;;;;;;4972014;28;20043;-83
2024/01/23 10:38:50;;;;;;;22.08;5.30;;;7.40;99.90;;;;;;4998508;28;20092;-82
2024/01/23 10:41:21;;;;;;;22.88;5.68;;;7.50;99.90;;;;;;5004577;28;20042;-83
2024/01/23 10:43:49;;;;;;;20.00;4.78;;;7.50;99.90;;;;;;5002577;28;20034;-82
2024/01/23 10:46:15;;;;;;;19.60;4.88;;;7.50;99.90;;;;;;4966651;28;20057;-82
2024/01/23 10:48:41;;;;;;;21.13;5.43;;;7.60;99.90;;;;;;4972591;28;20038;-83
2024/01/23 10:51:20;;;;;;;29.15;5.55;;;7.70;99.90;;;;;;4969308;28;20039;-83
2024/01/23 10:54:05;;;;;;;21.10;5.20;;;7.60;99.90;;;;;;4969522;28;20121;-83
2024/01/23 10:56:45;;;;;;;21.90;5.15;;;7.60;99.90;;;;;;4990436;28;20654;-82
2024/01/23 10:59:18;;;;;;;21.02;4.65;;;7.70;99.90;;;;;;4987075;28;20496;-82
2024/01/23 11:01:45;;;;;;;24.15;4.65;;;7.70;99.90;;;;;;4953607;28;20110;-82
2024/01/23 11:04:11;;;;;;;19.65;4.63;;;7.70;99.90;;;;;;4980517;28;20529;-82
2024/01/23 11:06:45;;;;;;;23.75;5.43;;;7.70;99.90;;;;;;5019154;28;20046;-83
2024/01/23 11:09:24;;;;;;;22.52;5.00;;;7.70;99.90;;;;;;5001508;28;20762;-83
2024/01/23 11:11:49;;;;;;;24.05;5.20;;;7.80;99.90;;;;;;4971273;28;20030;-82
2024/01/23 11:14:38;;;;;;;21.17;5.50;;;7.80;99.90;;;;;;5001264;28;20515;-83
2024/01/23 11:17:08;;;;;;;21.08;5.25;;;7.90;99.90;;;;;;4994684;28;20131;-82
2024/01/23 11:19:46;;;;;;;19.90;5.07;;;7.90;99.90;;;;;;4998666;28;20395;-82
2024/01/23 11:22:12;;;;;;;24.48;5.82;;;7.80;99.90;;;;;;5019599;28;20045;-82
2024/01/23 11:24:47;;;;;;;22.92;4.53;;;7.80;99.90;;;;;;4938228;28;20174;-82
2024/01/23 11:27:22;;;;;;;23.65;4.93;;;7.80;99.90;;;;;;5033285;28;20039;-83
2024/01/23 11:29:49;;;;;;;22.73;4.45;;;7.80;99.90;;;;;;5016739;28;20096;-83
2024/01/23 11:32:19;;;;;;;21.20;4.53;;;7.70;99.90;;;;;;4970031;28;20054;-83
2024/01/23 11:34:46;;;;;;;22.08;4.97;;;7.80;99.90;;;;;;5001340;28;20038;-83
2024/01/23 11:37:46;;;;;;;23.88;4.63;;;7.90;99.90;;;;;;5002105;28;20046;-83
2024/01/23 11:40:27;;;;;;;17.70;4.32;;;8.00;99.90;;;;;;4968622;28;20410;-82
2024/01/23 11:42:54;;;;;;;21.20;4.80;;;7.90;99.90;;;;;;5006225;28;20049;-82
2024/01/23 11:45:26;;;;;;;18.75;4.35;;;7.90;99.90;;;;;;5000397;28;20060;-83
2024/01/23 11:47:56;;;;;;;19.38;4.35;;;7.90;99.90;;;;;;4998570;28;20073;-83
2024/01/23 11:50:23;;;;;;;19.65;4.30;;;8.00;99.90;;;;;;5018203;28;20399;-82
2024/01/23 11:52:51;;;;;;;17.27;4.68;;;8.00;99.90;;;;;;4985016;28;20120;-83
2024/01/23 11:55:22;;;;;;;18.75;4.78;;;8.00;99.90;;;;;;5017382;28;20340;-82
2024/01/23 11:57:56;;;;;;;20.67;4.40;;;8.00;99.90;;;;;;5003150;28;20038;-83
2024/01/23 12:00:23;;;;;;;18.45;4.70;;;8.00;99.90;;;;;;4983042;28;20708;-83
2024/01/23 12:02:50;;;;;;;22.40;4.72;;;8.00;99.90;;;;;;4968071;28;20161;-83
2024/01/23 12:05:17;;;;;;;22.70;4.47;;;8.00;99.90;;;;;;5002081;28;20463;-83
2024/01/23 12:07:43;;;;;;;20.23;4.20;;;7.90;99.90;;;;;;4998114;28;20053;-83
2024/01/23 12:10:18;;;;;;;22.52;4.63;;;7.90;99.90;;;;;;5012083;28;20046;-83
2024/01/23 12:12:44;;;;;;;19.60;4.35;;;7.80;99.90;;;;;;5000261;28;20072;-83
2024/01/23 12:15:10;;;;;;;18.23;4.50;;;7.80;99.90;;;;;;4966929;28;20066;-82
2024/01/23 12:17:44;;;;;;;16.70;4.00;;;7.90;99.90;;;;;;5013142;28;20070;-83
2024/01/23 12:20:10;;;;;;;21.27;4.40;;;7.90;99.90;;;;;;4977371;28;20129;-82
2024/01/23 12:22:39;;;;;;;21.80;4.53;;;8.00;99.90;;;;;;5010568;28;20077;-83
2024/01/23 12:25:06;;;;;;;20.33;4.75;;;8.10;99.90;;;;;;5000607;28;20471;-82
2024/01/23 12:27:32;;;;;;;22.30;5.47;;;8.00;99.90;;;;;;5014588;28;20062;-82
2024/01/23 12:29:59;;;;;;;19.42;4.35;;;8.00;99.90;;;;;;4996796;28;20069;-82
2024/01/23 12:32:31;;;;;;;18.77;3.75;;;8.00;99.90;;;;;;4971202;28;20492;-82
2024/01/23 12:34:57;;;;;;;17.20;4.07;;;8.00;99.90;;;;;;5032348;28;20054;-82
2024/01/23 12:37:25;;;;;;;15.18;3.95;;;8.00;99.90;;;;;;4953285;28;20053;-82
2024/01/23 12:39:53;;;;;;;18.33;4.50;;;8.10;99.90;;;;;;4955622;28;20074;-82
2024/01/23 12:42:18;;;;;;;16.85;4.15;;;8.10;99.90;;;;;;4973606;28;20113;-83
2024/01/23 12:44:44;;;;;;;21.25;5.13;;;8.10;99.90;;;;;;4949344;28;21922;-82